sensor_id;sensor_type;location;lat;lon;timestamp;P1;durP1;ratioP1;P2;durP2;ratioP2
63201;SDS011;49296;48.188;11.566;2023-09-07T00:02:26;9.18;;;7.18;;
63201;SDS011;49296;48.188;11.566;2023-09-07T00:04:53;9.18;;;6.15;;
63201;SDS011;49296;48.188;11.566;2023-09-07T00:07:19;7.72;;;5.88;;
63201;SDS011;49296;48.188;11.566;2023-09-07T00:09:46;8.07;;;6.25;;
63201;SDS011;49296;48.188;11.566;2023-09-07T00:12:12;7.60;;;5.93;;
63201;SDS011;49296;48.188;11.566;2023-09-07T00:14:39;9.52;;;5.88;;
63201;SDS011;49296;48.188;11.566;2023-09-07T00:17:06;8.52;;;6.63;;
63201;SDS011;49296;48.188;11.566;2023-09-07T00:19:34;9.68;;;6.25;;
63201;SDS011;49296;48.188;11.566;2023-09-07T00:22:02;9.82;;;5.82;;
63201;SDS011;49296;48.188;11.566;2023-09-07T00:24:29;7.47;;;5.68;;
63201;SDS011;49296;48.188;11.566;2023-09-07T00:26:56;7.22;;;5.50;;
63201;SDS011;49296;48.188;11.566;2023-09-07T00:29:23;9.40;;;5.68;;
63201;SDS011;49296;48.188;11.566;2023-09-07T00:31:49;9.73;;;6.85;;
63201;SDS011;49296;48.188;11.566;2023-09-07T00:34:16;7.97;;;6.00;;
63201;SDS011;49296;48.188;11.566;2023-09-07T00:36:44;9.05;;;6.57;;
63201;SDS011;49296;48.188;11.566;2023-09-07T00:39:10;8.60;;;6.60;;
63201;SDS011;49296;48.188;11.566;2023-09-07T00:41:37;9.35;;;6.43;;
63201;SDS011;49296;48.188;11.566;2023-09-07T00:44:04;9.20;;;6.07;;
63201;SDS011;49296;48.188;11.566;2023-09-07T00:46:31;8.77;;;6.45;;
63201;SDS011;49296;48.188;11.566;2023-09-07T00:48:58;11.98;;;8.93;;
63201;SDS011;49296;48.188;11.566;2023-09-07T00:51:24;8.93;;;7.35;;
63201;SDS011;49296;48.188;11.566;2023-09-07T00:53:53;7.70;;;6.13;;
63201;SDS011;49296;48.188;11.566;2023-09-07T00:56:19;7.82;;;6.05;;
63201;SDS011;49296;48.188;11.566;2023-09-07T00:58:46;10.57;;;7.28;;
63201;SDS011;49296;48.188;11.566;2023-09-07T01:01:13;8.18;;;6.38;;
63201;SDS011;49296;48.188;11.566;2023-09-07T01:03:40;13.23;;;8.77;;
63201;SDS011;49296;48.188;11.566;2023-09-07T01:06:07;8.73;;;6.78;;
63201;SDS011;49296;48.188;11.566;2023-09-07T01:08:40;7.60;;;6.07;;
63201;SDS011;49296;48.188;11.566;2023-09-07T01:11:14;7.63;;;5.88;;
63201;SDS011;49296;48.188;11.566;2023-09-07T01:13:41;7.70;;;5.90;;
63201;SDS011;49296;48.188;11.566;2023-09-07T01:16:08;9.02;;;5.80;;
63201;SDS011;49296;48.188;11.566;2023-09-07T01:18:36;9.10;;;6.32;;
63201;SDS011;49296;48.188;11.566;2023-09-07T01:21:04;9.90;;;6.03;;
63201;SDS011;49296;48.188;11.566;2023-09-07T01:23:33;7.90;;;6.57;;
63201;SDS011;49296;48.188;11.566;2023-09-07T01:26:01;11.48;;;6.03;;
63201;SDS011;49296;48.188;11.566;2023-09-07T01:28:28;7.72;;;6.03;;
63201;SDS011;49296;48.188;11.566;2023-09-07T01:30:55;8.82;;;6.00;;
63201;SDS011;49296;48.188;11.566;2023-09-07T01:33:23;8.90;;;6.63;;
63201;SDS011;49296;48.188;11.566;2023-09-07T01:35:49;10.00;;;7.00;;
63201;SDS011;49296;48.188;11.566;2023-09-07T01:38:16;7.47;;;5.80;;
63201;SDS011;49296;48.188;11.566;2023-09-07T01:40:44;8.93;;;6.10;;
63201;SDS011;49296;48.188;11.566;2023-09-07T01:43:11;8.55;;;6.25;;
63201;SDS011;49296;48.188;11.566;2023-09-07T01:45:38;8.05;;;6.10;;
63201;SDS011;49296;48.188;11.566;2023-09-07T01:48:05;8.60;;;6.45;;
63201;SDS011;49296;48.188;11.566;2023-09-07T01:50:34;8.73;;;6.43;;
63201;SDS011;49296;48.188;11.566;2023-09-07T01:53:01;9.98;;;7.82;;
63201;SDS011;49296;48.188;11.566;2023-09-07T01:55:29;8.43;;;5.82;;
63201;SDS011;49296;48.188;11.566;2023-09-07T01:57:57;8.48;;;6.68;;
63201;SDS011;49296;48.188;11.566;2023-09-07T02:00:24;9.45;;;6.18;;
63201;SDS011;49296;48.188;11.566;2023-09-07T02:02:51;9.45;;;6.18;;
63201;SDS011;49296;48.188;11.566;2023-09-07T02:05:17;9.68;;;6.57;;
63201;SDS011;49296;48.188;11.566;2023-09-07T02:07:44;8.30;;;6.57;;
63201;SDS011;49296;48.188;11.566;2023-09-07T02:10:12;7.38;;;6.05;;
63201;SDS011;49296;48.188;11.566;2023-09-07T02:12:40;9.18;;;6.22;;
63201;SDS011;49296;48.188;11.566;2023-09-07T02:15:08;8.93;;;6.70;;
63201;SDS011;49296;48.188;11.566;2023-09-07T02:17:35;9.95;;;6.55;;
63201;SDS011;49296;48.188;11.566;2023-09-07T02:20:02;9.35;;;6.43;;
63201;SDS011;49296;48.188;11.566;2023-09-07T02:22:33;10.55;;;6.90;;
63201;SDS011;49296;48.188;11.566;2023-09-07T02:25:00;9.18;;;6.57;;
63201;SDS011;49296;48.188;11.566;2023-09-07T02:27:26;7.88;;;6.25;;
63201;SDS011;49296;48.188;11.566;2023-09-07T02:29:53;9.15;;;6.93;;
63201;SDS011;49296;48.188;11.566;2023-09-07T02:32:21;9.35;;;7.50;;
63201;SDS011;49296;48.188;11.566;2023-09-07T02:34:48;8.80;;;6.95;;
63201;SDS011;49296;48.188;11.566;2023-09-07T02:37:14;8.13;;;6.63;;
63201;SDS011;49296;48.188;11.566;2023-09-07T02:39:41;9.15;;;6.95;;
63201;SDS011;49296;48.188;11.566;2023-09-07T02:42:08;8.98;;;6.43;;
63201;SDS011;49296;48.188;11.566;2023-09-07T02:44:35;8.88;;;6.63;;
63201;SDS011;49296;48.188;11.566;2023-09-07T02:47:03;9.40;;;6.95;;
63201;SDS011;49296;48.188;11.566;2023-09-07T02:49:31;8.95;;;6.53;;
63201;SDS011;49296;48.188;11.566;2023-09-07T02:51:57;10.05;;;7.13;;
63201;SDS011;49296;48.188;11.566;2023-09-07T02:54:24;10.18;;;7.05;;
63201;SDS011;49296;48.188;11.566;2023-09-07T02:56:51;8.63;;;6.78;;
63201;SDS011;49296;48.188;11.566;2023-09-07T02:59:17;8.68;;;6.85;;
63201;SDS011;49296;48.188;11.566;2023-09-07T03:01:45;10.70;;;7.88;;
63201;SDS011;49296;48.188;11.566;2023-09-07T03:04:11;8.52;;;7.05;;
63201;SDS011;49296;48.188;11.566;2023-09-07T03:06:39;10.32;;;7.00;;
63201;SDS011;49296;48.188;11.566;2023-09-07T03:09:06;8.02;;;6.47;;
63201;SDS011;49296;48.188;11.566;2023-09-07T03:11:34;9.93;;;7.60;;
63201;SDS011;49296;48.188;11.566;2023-09-07T03:14:00;10.88;;;7.47;;
63201;SDS011;49296;48.188;11.566;2023-09-07T03:16:27;9.32;;;7.13;;
63201;SDS011;49296;48.188;11.566;2023-09-07T03:18:55;11.93;;;8.05;;
63201;SDS011;49296;48.188;11.566;2023-09-07T03:21:21;10.38;;;7.70;;
63201;SDS011;49296;48.188;11.566;2023-09-07T03:23:52;9.75;;;6.70;;
63201;SDS011;49296;48.188;11.566;2023-09-07T03:26:18;9.98;;;7.15;;
63201;SDS011;49296;48.188;11.566;2023-09-07T03:28:45;10.20;;;7.30;;
63201;SDS011;49296;48.188;11.566;2023-09-07T03:31:12;9.15;;;6.97;;
63201;SDS011;49296;48.188;11.566;2023-09-07T03:33:38;11.25;;;7.38;;
63201;SDS011;49296;48.188;11.566;2023-09-07T03:36:05;10.40;;;7.35;;
63201;SDS011;49296;48.188;11.566;2023-09-07T03:38:34;10.63;;;7.55;;
63201;SDS011;49296;48.188;11.566;2023-09-07T03:41:02;9.95;;;7.60;;
63201;SDS011;49296;48.188;11.566;2023-09-07T03:43:28;9.05;;;7.50;;
63201;SDS011;49296;48.188;11.566;2023-09-07T03:45:56;8.38;;;7.30;;
63201;SDS011;49296;48.188;11.566;2023-09-07T03:48:23;9.80;;;8.15;;
63201;SDS011;49296;48.188;11.566;2023-09-07T03:50:49;13.00;;;7.65;;
63201;SDS011;49296;48.188;11.566;2023-09-07T03:53:16;11.43;;;8.43;;
63201;SDS011;49296;48.188;11.566;2023-09-07T03:55:43;11.15;;;7.57;;
63201;SDS011;49296;48.188;11.566;2023-09-07T03:58:12;11.23;;;8.43;;
63201;SDS011;49296;48.188;11.566;2023-09-07T04:00:38;12.07;;;7.47;;
63201;SDS011;49296;48.188;11.566;2023-09-07T04:03:06;10.57;;;8.57;;
63201;SDS011;49296;48.188;11.566;2023-09-07T04:05:33;12.13;;;8.00;;
63201;SDS011;49296;48.188;11.566;2023-09-07T04:07:59;10.35;;;7.78;;
63201;SDS011;49296;48.188;11.566;2023-09-07T04:10:27;11.02;;;8.38;;
63201;SDS011;49296;48.188;11.566;2023-09-07T04:12:54;10.45;;;7.55;;
63201;SDS011;49296;48.188;11.566;2023-09-07T04:15:22;11.85;;;8.32;;
63201;SDS011;49296;48.188;11.566;2023-09-07T04:17:50;12.07;;;8.63;;
63201;SDS011;49296;48.188;11.566;2023-09-07T04:20:17;11.00;;;8.05;;
63201;SDS011;49296;48.188;11.566;2023-09-07T04:22:44;10.05;;;7.60;;
63201;SDS011;49296;48.188;11.566;2023-09-07T04:25:10;10.57;;;7.90;;
63201;SDS011;49296;48.188;11.566;2023-09-07T04:27:37;10.02;;;7.80;;
63201;SDS011;49296;48.188;11.566;2023-09-07T04:30:04;10.73;;;8.23;;
63201;SDS011;49296;48.188;11.566;2023-09-07T04:32:33;10.85;;;8.07;;
63201;SDS011;49296;48.188;11.566;2023-09-07T04:34:59;12.55;;;8.77;;
63201;SDS011;49296;48.188;11.566;2023-09-07T04:37:26;11.52;;;8.10;;
63201;SDS011;49296;48.188;11.566;2023-09-07T04:39:53;9.90;;;8.40;;
63201;SDS011;49296;48.188;11.566;2023-09-07T04:42:20;12.60;;;8.38;;
63201;SDS011;49296;48.188;11.566;2023-09-07T04:44:47;11.77;;;8.23;;
63201;SDS011;49296;48.188;11.566;2023-09-07T04:47:13;12.00;;;8.52;;
63201;SDS011;49296;48.188;11.566;2023-09-07T04:49:42;10.70;;;8.50;;
63201;SDS011;49296;48.188;11.566;2023-09-07T04:52:08;13.80;;;8.80;;
63201;SDS011;49296;48.188;11.566;2023-09-07T04:54:35;11.13;;;7.88;;
63201;SDS011;49296;48.188;11.566;2023-09-07T04:57:01;13.25;;;8.63;;
63201;SDS011;49296;48.188;11.566;2023-09-07T04:59:28;12.18;;;8.15;;
63201;SDS011;49296;48.188;11.566;2023-09-07T05:01:58;11.40;;;8.15;;
63201;SDS011;49296;48.188;11.566;2023-09-07T05:04:25;13.88;;;8.63;;
63201;SDS011;49296;48.188;11.566;2023-09-07T05:06:53;12.73;;;8.52;;
63201;SDS011;49296;48.188;11.566;2023-09-07T05:09:20;11.65;;;8.27;;
63201;SDS011;49296;48.188;11.566;2023-09-07T05:11:46;11.20;;;8.63;;
63201;SDS011;49296;48.188;11.566;2023-09-07T05:14:13;11.18;;;8.38;;
63201;SDS011;49296;48.188;11.566;2023-09-07T05:16:42;10.75;;;7.95;;
63201;SDS011;49296;48.188;11.566;2023-09-07T05:19:08;10.63;;;8.52;;
63201;SDS011;49296;48.188;11.566;2023-09-07T05:21:35;10.27;;;8.13;;
63201;SDS011;49296;48.188;11.566;2023-09-07T05:24:03;10.85;;;8.20;;
63201;SDS011;49296;48.188;11.566;2023-09-07T05:26:30;11.90;;;8.50;;
63201;SDS011;49296;48.188;11.566;2023-09-07T05:28:56;12.00;;;8.63;;
63201;SDS011;49296;48.188;11.566;2023-09-07T05:31:23;12.80;;;8.75;;
63201;SDS011;49296;48.188;11.566;2023-09-07T05:33:49;11.93;;;8.55;;
63201;SDS011;49296;48.188;11.566;2023-09-07T05:36:16;12.02;;;8.85;;
63201;SDS011;49296;48.188;11.566;2023-09-07T05:38:43;12.43;;;8.98;;
63201;SDS011;49296;48.188;11.566;2023-09-07T05:41:11;14.10;;;9.13;;
63201;SDS011;49296;48.188;11.566;2023-09-07T05:43:38;13.02;;;9.45;;
63201;SDS011;49296;48.188;11.566;2023-09-07T05:46:04;13.23;;;10.00;;
63201;SDS011;49296;48.188;11.566;2023-09-07T05:48:31;12.30;;;9.45;;
63201;SDS011;49296;48.188;11.566;2023-09-07T05:50:58;14.00;;;9.60;;
63201;SDS011;49296;48.188;11.566;2023-09-07T05:53:24;12.82;;;9.23;;
63201;SDS011;49296;48.188;11.566;2023-09-07T05:55:51;13.80;;;10.02;;
63201;SDS011;49296;48.188;11.566;2023-09-07T05:58:19;13.73;;;9.63;;
63201;SDS011;49296;48.188;11.566;2023-09-07T06:00:46;12.88;;;9.40;;
63201;SDS011;49296;48.188;11.566;2023-09-07T06:03:13;11.23;;;8.63;;
63201;SDS011;49296;48.188;11.566;2023-09-07T06:05:39;14.25;;;9.38;;
63201;SDS011;49296;48.188;11.566;2023-09-07T06:08:06;13.32;;;9.05;;
63201;SDS011;49296;48.188;11.566;2023-09-07T06:10:33;13.20;;;9.05;;
63201;SDS011;49296;48.188;11.566;2023-09-07T06:13:00;11.93;;;9.00;;
63201;SDS011;49296;48.188;11.566;2023-09-07T06:15:28;11.35;;;9.57;;
63201;SDS011;49296;48.188;11.566;2023-09-07T06:17:55;13.25;;;9.13;;
63201;SDS011;49296;48.188;11.566;2023-09-07T06:20:22;13.15;;;9.15;;
63201;SDS011;49296;48.188;11.566;2023-09-07T06:22:49;13.70;;;9.10;;
63201;SDS011;49296;48.188;11.566;2023-09-07T06:25:15;13.10;;;9.55;;
63201;SDS011;49296;48.188;11.566;2023-09-07T06:27:42;14.60;;;9.50;;
63201;SDS011;49296;48.188;11.566;2023-09-07T06:30:09;16.05;;;10.95;;
63201;SDS011;49296;48.188;11.566;2023-09-07T06:32:37;14.20;;;10.15;;
63201;SDS011;49296;48.188;11.566;2023-09-07T06:35:05;11.43;;;8.98;;
63201;SDS011;49296;48.188;11.566;2023-09-07T06:37:32;13.18;;;10.02;;
63201;SDS011;49296;48.188;11.566;2023-09-07T06:39:59;15.77;;;9.52;;
63201;SDS011;49296;48.188;11.566;2023-09-07T06:42:25;13.32;;;9.48;;
63201;SDS011;49296;48.188;11.566;2023-09-07T06:44:52;13.30;;;10.13;;
63201;SDS011;49296;48.188;11.566;2023-09-07T06:47:19;12.57;;;9.40;;
63201;SDS011;49296;48.188;11.566;2023-09-07T06:49:46;12.70;;;9.45;;
63201;SDS011;49296;48.188;11.566;2023-09-07T06:52:13;15.52;;;10.40;;
63201;SDS011;49296;48.188;11.566;2023-09-07T06:54:40;13.38;;;9.88;;
63201;SDS011;49296;48.188;11.566;2023-09-07T06:57:07;12.38;;;8.93;;
63201;SDS011;49296;48.188;11.566;2023-09-07T06:59:34;12.05;;;9.25;;
63201;SDS011;49296;48.188;11.566;2023-09-07T07:02:00;13.02;;;9.13;;
63201;SDS011;49296;48.188;11.566;2023-09-07T07:04:30;14.30;;;9.95;;
63201;SDS011;49296;48.188;11.566;2023-09-07T07:06:58;11.07;;;9.00;;
63201;SDS011;49296;48.188;11.566;2023-09-07T07:09:26;12.75;;;9.45;;
63201;SDS011;49296;48.188;11.566;2023-09-07T07:11:53;12.00;;;8.95;;
63201;SDS011;49296;48.188;11.566;2023-09-07T07:14:19;12.15;;;9.18;;
63201;SDS011;49296;48.188;11.566;2023-09-07T07:16:46;11.45;;;8.63;;
63201;SDS011;49296;48.188;11.566;2023-09-07T07:19:13;14.55;;;8.75;;
63201;SDS011;49296;48.188;11.566;2023-09-07T07:21:39;12.73;;;9.10;;
63201;SDS011;49296;48.188;11.566;2023-09-07T07:24:07;13.55;;;8.65;;
63201;SDS011;49296;48.188;11.566;2023-09-07T07:26:34;13.70;;;9.55;;
63201;SDS011;49296;48.188;11.566;2023-09-07T07:29:01;12.55;;;9.07;;
63201;SDS011;49296;48.188;11.566;2023-09-07T07:31:28;12.23;;;8.88;;
63201;SDS011;49296;48.188;11.566;2023-09-07T07:33:54;10.88;;;8.85;;
63201;SDS011;49296;48.188;11.566;2023-09-07T07:36:21;12.15;;;9.05;;
63201;SDS011;49296;48.188;11.566;2023-09-07T07:38:48;10.80;;;8.70;;
63201;SDS011;49296;48.188;11.566;2023-09-07T07:41:16;12.82;;;9.18;;
63201;SDS011;49296;48.188;11.566;2023-09-07T07:43:43;11.57;;;9.07;;
63201;SDS011;49296;48.188;11.566;2023-09-07T07:46:09;10.80;;;8.20;;
63201;SDS011;49296;48.188;11.566;2023-09-07T07:48:36;11.82;;;8.20;;
63201;SDS011;49296;48.188;11.566;2023-09-07T07:51:03;12.32;;;8.25;;
63201;SDS011;49296;48.188;11.566;2023-09-07T07:53:30;16.00;;;9.30;;
63201;SDS011;49296;48.188;11.566;2023-09-07T07:55:57;11.05;;;8.45;;
63201;SDS011;49296;48.188;11.566;2023-09-07T07:58:25;12.68;;;8.85;;
63201;SDS011;49296;48.188;11.566;2023-09-07T08:00:51;10.68;;;8.75;;
63201;SDS011;49296;48.188;11.566;2023-09-07T08:03:18;11.65;;;8.80;;
63201;SDS011;49296;48.188;11.566;2023-09-07T08:05:45;12.15;;;9.07;;
63201;SDS011;49296;48.188;11.566;2023-09-07T08:08:13;18.52;;;10.32;;
63201;SDS011;49296;48.188;11.566;2023-09-07T08:10:39;14.98;;;9.93;;
63201;SDS011;49296;48.188;11.566;2023-09-07T08:13:06;12.90;;;9.50;;
63201;SDS011;49296;48.188;11.566;2023-09-07T08:15:35;13.88;;;10.60;;
63201;SDS011;49296;48.188;11.566;2023-09-07T08:18:01;12.40;;;9.75;;
63201;SDS011;49296;48.188;11.566;2023-09-07T08:20:31;14.95;;;9.70;;
63201;SDS011;49296;48.188;11.566;2023-09-07T08:22:58;13.80;;;9.90;;
63201;SDS011;49296;48.188;11.566;2023-09-07T08:25:28;12.55;;;9.95;;
63201;SDS011;49296;48.188;11.566;2023-09-07T08:27:55;10.88;;;8.85;;
63201;SDS011;49296;48.188;11.566;2023-09-07T08:30:24;14.67;;;11.00;;
63201;SDS011;49296;48.188;11.566;2023-09-07T08:32:52;12.43;;;9.80;;
63201;SDS011;49296;48.188;11.566;2023-09-07T08:35:20;12.50;;;10.20;;
63201;SDS011;49296;48.188;11.566;2023-09-07T08:37:51;12.15;;;9.63;;
63201;SDS011;49296;48.188;11.566;2023-09-07T08:40:18;13.63;;;10.85;;
63201;SDS011;49296;48.188;11.566;2023-09-07T08:42:46;15.40;;;10.30;;
63201;SDS011;49296;48.188;11.566;2023-09-07T08:45:14;15.43;;;11.13;;
63201;SDS011;49296;48.188;11.566;2023-09-07T08:47:47;12.98;;;9.63;;
63201;SDS011;49296;48.188;11.566;2023-09-07T08:50:17;11.88;;;9.25;;
63201;SDS011;49296;48.188;11.566;2023-09-07T08:52:45;12.82;;;10.00;;
63201;SDS011;49296;48.188;11.566;2023-09-07T08:55:14;14.20;;;10.18;;
63201;SDS011;49296;48.188;11.566;2023-09-07T08:57:42;11.98;;;9.13;;
63201;SDS011;49296;48.188;11.566;2023-09-07T09:00:09;13.65;;;9.68;;
63201;SDS011;49296;48.188;11.566;2023-09-07T09:02:41;12.20;;;9.63;;
63201;SDS011;49296;48.188;11.566;2023-09-07T09:05:08;11.18;;;8.95;;
63201;SDS011;49296;48.188;11.566;2023-09-07T09:07:37;12.48;;;10.52;;
63201;SDS011;49296;48.188;11.566;2023-09-07T09:10:04;12.38;;;9.55;;
63201;SDS011;49296;48.188;11.566;2023-09-07T09:12:31;13.40;;;9.38;;
63201;SDS011;49296;48.188;11.566;2023-09-07T09:14:58;11.73;;;9.30;;
63201;SDS011;49296;48.188;11.566;2023-09-07T09:17:26;14.45;;;9.55;;
63201;SDS011;49296;48.188;11.566;2023-09-07T09:19:52;10.82;;;9.02;;
63201;SDS011;49296;48.188;11.566;2023-09-07T09:22:19;12.45;;;9.75;;
63201;SDS011;49296;48.188;11.566;2023-09-07T09:24:48;11.93;;;9.25;;
63201;SDS011;49296;48.188;11.566;2023-09-07T09:27:15;12.98;;;9.98;;
63201;SDS011;49296;48.188;11.566;2023-09-07T09:29:42;12.20;;;9.05;;
63201;SDS011;49296;48.188;11.566;2023-09-07T09:32:09;17.25;;;9.25;;
63201;SDS011;49296;48.188;11.566;2023-09-07T09:34:43;12.57;;;9.68;;
63201;SDS011;49296;48.188;11.566;2023-09-07T09:37:12;12.18;;;9.88;;
63201;SDS011;49296;48.188;11.566;2023-09-07T09:39:39;13.25;;;9.63;;
63201;SDS011;49296;48.188;11.566;2023-09-07T09:42:08;11.65;;;9.43;;
63201;SDS011;49296;48.188;11.566;2023-09-07T09:44:35;10.48;;;8.98;;
63201;SDS011;49296;48.188;11.566;2023-09-07T09:47:04;12.43;;;8.75;;
63201;SDS011;49296;48.188;11.566;2023-09-07T09:49:32;11.05;;;8.63;;
63201;SDS011;49296;48.188;11.566;2023-09-07T09:51:59;12.65;;;8.95;;
63201;SDS011;49296;48.188;11.566;2023-09-07T09:54:26;12.63;;;7.95;;
63201;SDS011;49296;48.188;11.566;2023-09-07T09:56:54;12.75;;;7.93;;
63201;SDS011;49296;48.188;11.566;2023-09-07T09:59:22;12.45;;;8.98;;
63201;SDS011;49296;48.188;11.566;2023-09-07T10:01:49;9.40;;;8.23;;
63201;SDS011;49296;48.188;11.566;2023-09-07T10:04:18;10.80;;;8.87;;
63201;SDS011;49296;48.188;11.566;2023-09-07T10:06:53;9.25;;;8.00;;
63201;SDS011;49296;48.188;11.566;2023-09-07T10:09:21;10.18;;;8.50;;
63201;SDS011;49296;48.188;11.566;2023-09-07T10:11:51;11.15;;;9.52;;
63201;SDS011;49296;48.188;11.566;2023-09-07T10:14:19;10.77;;;8.63;;
63201;SDS011;49296;48.188;11.566;2023-09-07T10:16:48;10.30;;;8.57;;
63201;SDS011;49296;48.188;11.566;2023-09-07T10:19:17;10.48;;;8.57;;
63201;SDS011;49296;48.188;11.566;2023-09-07T10:21:45;14.20;;;9.55;;
63201;SDS011;49296;48.188;11.566;2023-09-07T10:24:11;9.60;;;7.97;;
63201;SDS011;49296;48.188;11.566;2023-09-07T10:26:55;9.40;;;8.35;;
63201;SDS011;49296;48.188;11.566;2023-09-07T10:29:22;11.57;;;8.02;;
63201;SDS011;49296;48.188;11.566;2023-09-07T10:31:51;9.20;;;7.80;;
63201;SDS011;49296;48.188;11.566;2023-09-07T10:34:18;10.17;;;8.07;;
63201;SDS011;49296;48.188;11.566;2023-09-07T10:36:46;9.00;;;7.82;;
63201;SDS011;49296;48.188;11.566;2023-09-07T10:39:13;9.75;;;7.85;;
63201;SDS011;49296;48.188;11.566;2023-09-07T10:41:40;8.18;;;7.15;;
63201;SDS011;49296;48.188;11.566;2023-09-07T10:44:08;10.40;;;8.63;;
63201;SDS011;49296;48.188;11.566;2023-09-07T10:46:35;9.02;;;7.43;;
63201;SDS011;49296;48.188;11.566;2023-09-07T10:49:06;9.38;;;7.32;;
63201;SDS011;49296;48.188;11.566;2023-09-07T10:54:12;9.23;;;7.28;;
63201;SDS011;49296;48.188;11.566;2023-09-07T10:56:40;9.57;;;7.82;;
63201;SDS011;49296;48.188;11.566;2023-09-07T10:59:08;9.13;;;7.38;;
63201;SDS011;49296;48.188;11.566;2023-09-07T11:01:35;9.38;;;8.27;;
63201;SDS011;49296;48.188;11.566;2023-09-07T11:04:02;10.27;;;7.80;;
63201;SDS011;49296;48.188;11.566;2023-09-07T11:06:31;9.15;;;7.45;;
63201;SDS011;49296;48.188;11.566;2023-09-07T11:08:59;10.65;;;7.97;;
63201;SDS011;49296;48.188;11.566;2023-09-07T11:11:25;13.50;;;7.93;;
63201;SDS011;49296;48.188;11.566;2023-09-07T11:13:53;12.50;;;7.75;;
63201;SDS011;49296;48.188;11.566;2023-09-07T11:16:19;9.95;;;7.53;;
63201;SDS011;49296;48.188;11.566;2023-09-07T11:18:46;10.55;;;7.75;;
63201;SDS011;49296;48.188;11.566;2023-09-07T11:21:13;9.25;;;7.68;;
63201;SDS011;49296;48.188;11.566;2023-09-07T11:23:42;8.43;;;7.53;;
63201;SDS011;49296;48.188;11.566;2023-09-07T11:26:10;10.95;;;6.85;;
63201;SDS011;49296;48.188;11.566;2023-09-07T11:28:37;9.35;;;7.35;;
63201;SDS011;49296;48.188;11.566;2023-09-07T11:31:04;9.25;;;7.80;;
63201;SDS011;49296;48.188;11.566;2023-09-07T11:33:31;11.90;;;8.30;;
63201;SDS011;49296;48.188;11.566;2023-09-07T11:35:58;15.88;;;9.77;;
63201;SDS011;49296;48.188;11.566;2023-09-07T11:38:27;14.50;;;9.85;;
63201;SDS011;49296;48.188;11.566;2023-09-07T11:40:56;11.95;;;8.43;;
63201;SDS011;49296;48.188;11.566;2023-09-07T11:43:23;11.00;;;8.15;;
63201;SDS011;49296;48.188;11.566;2023-09-07T11:45:50;14.48;;;8.43;;
63201;SDS011;49296;48.188;11.566;2023-09-07T11:48:16;11.07;;;8.57;;
63201;SDS011;49296;48.188;11.566;2023-09-07T11:50:43;9.15;;;7.63;;
63201;SDS011;49296;48.188;11.566;2023-09-07T11:53:10;8.48;;;7.60;;
63201;SDS011;49296;48.188;11.566;2023-09-07T11:55:36;9.05;;;7.43;;
63201;SDS011;49296;48.188;11.566;2023-09-07T11:58:06;8.55;;;7.28;;
63201;SDS011;49296;48.188;11.566;2023-09-07T12:00:32;8.63;;;7.45;;
63201;SDS011;49296;48.188;11.566;2023-09-07T12:02:59;8.43;;;7.53;;
63201;SDS011;49296;48.188;11.566;2023-09-07T12:05:26;10.77;;;7.72;;
63201;SDS011;49296;48.188;11.566;2023-09-07T12:07:52;9.98;;;7.50;;
63201;SDS011;49296;48.188;11.566;2023-09-07T12:10:19;11.80;;;7.95;;
63201;SDS011;49296;48.188;11.566;2023-09-07T12:12:46;10.70;;;7.20;;
63201;SDS011;49296;48.188;11.566;2023-09-07T12:15:14;8.05;;;6.38;;
63201;SDS011;49296;48.188;11.566;2023-09-07T12:17:40;8.18;;;6.75;;
63201;SDS011;49296;48.188;11.566;2023-09-07T12:20:07;8.60;;;6.97;;
63201;SDS011;49296;48.188;11.566;2023-09-07T12:22:35;7.57;;;6.32;;
63201;SDS011;49296;48.188;11.566;2023-09-07T12:25:03;7.13;;;6.43;;
63201;SDS011;49296;48.188;11.566;2023-09-07T12:27:31;12.77;;;7.15;;
63201;SDS011;49296;48.188;11.566;2023-09-07T12:29:58;9.23;;;6.82;;
63201;SDS011;49296;48.188;11.566;2023-09-07T12:32:26;7.70;;;6.80;;
63201;SDS011;49296;48.188;11.566;2023-09-07T12:34:53;8.38;;;6.30;;
63201;SDS011;49296;48.188;11.566;2023-09-07T12:37:19;9.38;;;7.15;;
63201;SDS011;49296;48.188;11.566;2023-09-07T12:39:48;8.07;;;6.60;;
63201;SDS011;49296;48.188;11.566;2023-09-07T12:42:15;8.40;;;6.22;;
63201;SDS011;49296;48.188;11.566;2023-09-07T12:44:42;8.68;;;6.18;;
63201;SDS011;49296;48.188;11.566;2023-09-07T12:47:09;7.32;;;6.50;;
63201;SDS011;49296;48.188;11.566;2023-09-07T12:49:37;7.70;;;6.28;;
63201;SDS011;49296;48.188;11.566;2023-09-07T12:52:04;8.30;;;6.38;;
63201;SDS011;49296;48.188;11.566;2023-09-07T12:57:00;7.05;;;5.95;;
63201;SDS011;49296;48.188;11.566;2023-09-07T12:59:28;7.15;;;6.28;;
63201;SDS011;49296;48.188;11.566;2023-09-07T13:01:55;8.05;;;6.15;;
63201;SDS011;49296;48.188;11.566;2023-09-07T13:04:21;6.82;;;5.80;;
63201;SDS011;49296;48.188;11.566;2023-09-07T13:06:49;9.10;;;6.45;;
63201;SDS011;49296;48.188;11.566;2023-09-07T13:09:16;7.70;;;6.15;;
63201;SDS011;49296;48.188;11.566;2023-09-07T13:11:43;7.65;;;5.78;;
63201;SDS011;49296;48.188;11.566;2023-09-07T13:14:09;8.35;;;6.78;;
63201;SDS011;49296;48.188;11.566;2023-09-07T13:16:36;7.28;;;5.50;;
63201;SDS011;49296;48.188;11.566;2023-09-07T13:19:02;6.57;;;5.35;;
63201;SDS011;49296;48.188;11.566;2023-09-07T13:21:30;7.22;;;5.45;;
63201;SDS011;49296;48.188;11.566;2023-09-07T13:23:58;6.97;;;5.28;;
63201;SDS011;49296;48.188;11.566;2023-09-07T13:26:25;8.30;;;6.05;;
63201;SDS011;49296;48.188;11.566;2023-09-07T13:28:51;6.47;;;5.20;;
63201;SDS011;49296;48.188;11.566;2023-09-07T13:31:18;7.50;;;5.90;;
63201;SDS011;49296;48.188;11.566;2023-09-07T13:33:44;9.77;;;6.45;;
63201;SDS011;49296;48.188;11.566;2023-09-07T13:36:11;7.80;;;5.43;;
63201;SDS011;49296;48.188;11.566;2023-09-07T13:38:38;7.32;;;5.30;;
63201;SDS011;49296;48.188;11.566;2023-09-07T13:41:07;6.35;;;4.85;;
63201;SDS011;49296;48.188;11.566;2023-09-07T13:43:34;7.70;;;5.10;;
63201;SDS011;49296;48.188;11.566;2023-09-07T13:46:00;17.73;;;11.25;;
63201;SDS011;49296;48.188;11.566;2023-09-07T13:48:27;13.52;;;9.75;;
63201;SDS011;49296;48.188;11.566;2023-09-07T13:50:55;6.50;;;5.40;;
63201;SDS011;49296;48.188;11.566;2023-09-07T13:53:21;7.22;;;5.70;;
63201;SDS011;49296;48.188;11.566;2023-09-07T13:55:48;7.07;;;5.00;;
63201;SDS011;49296;48.188;11.566;2023-09-07T13:58:16;5.95;;;5.03;;
63201;SDS011;49296;48.188;11.566;2023-09-07T14:00:43;7.40;;;5.65;;
63201;SDS011;49296;48.188;11.566;2023-09-07T14:03:09;6.25;;;4.95;;
63201;SDS011;49296;48.188;11.566;2023-09-07T14:05:36;6.30;;;4.95;;
63201;SDS011;49296;48.188;11.566;2023-09-07T14:08:02;6.93;;;4.85;;
63201;SDS011;49296;48.188;11.566;2023-09-07T14:10:29;7.00;;;5.55;;
63201;SDS011;49296;48.188;11.566;2023-09-07T14:12:56;6.28;;;4.70;;
63201;SDS011;49296;48.188;11.566;2023-09-07T14:15:24;7.40;;;5.35;;
63201;SDS011;49296;48.188;11.566;2023-09-07T14:17:51;6.72;;;5.30;;
63201;SDS011;49296;48.188;11.566;2023-09-07T14:20:17;5.60;;;4.82;;
63201;SDS011;49296;48.188;11.566;2023-09-07T14:22:44;7.88;;;4.88;;
63201;SDS011;49296;48.188;11.566;2023-09-07T14:25:10;5.65;;;4.60;;
63201;SDS011;49296;48.188;11.566;2023-09-07T14:27:38;6.05;;;4.80;;
63201;SDS011;49296;48.188;11.566;2023-09-07T14:30:06;6.55;;;5.35;;
63201;SDS011;49296;48.188;11.566;2023-09-07T14:32:34;7.05;;;5.43;;